Terminal Aerodrome Forecast
Issued by NWS

Home | Current Version | Previous Version | Text Only | Print | Product List | Glossary On
Versions: 1 2 3 4 5 6 7 8 9 10 11 12 13 14 15 16 17 18 19 20 21 22 23 24 25 26 27 28 29 30 31 32 33 34 35 36 37 38 39 40 41 42 43 44 45 46 47 48
000
FTAK31 PAFA 060531
TAFAUN
TAF
PAUN 060531Z 0606/0706 VRB03KT P6SM -SHSN BKN007 OVC013
     FM060900 11010KT P6SM VCSH SCT025 OVC060
     FM061500 10018G25KT 5SM -SN BLSN OVC030
     FM062000 09026G33KT 2SM -RASN BR BKN015 OVC030
     FM062300 14026G33KT 1/2SM -SN BLSN FZFG SCT004 OVC007=

USA.gov is the U.S. government's official web portal to all federal, state and local government web resources and services.